sensor_id;sensor_type;location;lat;lon;timestamp;temperature;humidity
72865;DHT22;61000;48.120;11.548;2023-04-03T00:00:08;2.40;99.90
72865;DHT22;61000;48.120;11.548;2023-04-03T00:02:35;2.40;99.90
72865;DHT22;61000;48.120;11.548;2023-04-03T00:05:02;2.40;99.90
72865;DHT22;61000;48.120;11.548;2023-04-03T00:07:30;2.40;99.90
72865;DHT22;61000;48.120;11.548;2023-04-03T00:09:57;2.50;99.90
72865;DHT22;61000;48.120;11.548;2023-04-03T00:12:25;2.40;99.90
72865;DHT22;61000;48.120;11.548;2023-04-03T00:14:52;2.30;99.90
72865;DHT22;61000;48.120;11.548;2023-04-03T00:17:19;2.30;99.90
72865;DHT22;61000;48.120;11.548;2023-04-03T00:19:46;2.30;99.90
72865;DHT22;61000;48.120;11.548;2023-04-03T00:22:13;2.30;99.90
72865;DHT22;61000;48.120;11.548;2023-04-03T00:24:39;2.20;99.90
72865;DHT22;61000;48.120;11.548;2023-04-03T00:27:06;2.20;99.90
72865;DHT22;61000;48.120;11.548;2023-04-03T00:29:35;2.30;99.90
72865;DHT22;61000;48.120;11.548;2023-04-03T00:32:02;2.20;99.90
72865;DHT22;61000;48.120;11.548;2023-04-03T00:34:29;2.30;99.90
72865;DHT22;61000;48.120;11.548;2023-04-03T00:36:57;2.20;99.90
72865;DHT22;61000;48.120;11.548;2023-04-03T00:39:24;2.30;99.90
72865;DHT22;61000;48.120;11.548;2023-04-03T00:41:51;2.20;99.90
72865;DHT22;61000;48.120;11.548;2023-04-03T00:44:20;2.20;99.90
72865;DHT22;61000;48.120;11.548;2023-04-03T00:46:49;2.10;99.90
72865;DHT22;61000;48.120;11.548;2023-04-03T00:49:16;2.30;99.90
72865;DHT22;61000;48.120;11.548;2023-04-03T00:51:43;2.20;99.90
72865;DHT22;61000;48.120;11.548;2023-04-03T00:54:10;2.20;99.90
72865;DHT22;61000;48.120;11.548;2023-04-03T00:56:37;2.30;99.90
72865;DHT22;61000;48.120;11.548;2023-04-03T00:59:08;2.10;99.90
72865;DHT22;61000;48.120;11.548;2023-04-03T01:01:37;2.10;99.90
72865;DHT22;61000;48.120;11.548;2023-04-03T01:04:24;2.20;99.90
72865;DHT22;61000;48.120;11.548;2023-04-03T01:06:53;2.20;99.90
72865;DHT22;61000;48.120;11.548;2023-04-03T01:09:22;2.30;99.90
72865;DHT22;61000;48.120;11.548;2023-04-03T01:11:49;2.30;99.90
72865;DHT22;61000;48.120;11.548;2023-04-03T01:14:16;2.20;99.90
72865;DHT22;61000;48.120;11.548;2023-04-03T01:16:52;2.20;99.90
72865;DHT22;61000;48.120;11.548;2023-04-03T01:19:22;2.20;99.90
72865;DHT22;61000;48.120;11.548;2023-04-03T01:22:10;2.20;99.90
72865;DHT22;61000;48.120;11.548;2023-04-03T01:24:42;2.20;99.90
72865;DHT22;61000;48.120;11.548;2023-04-03T01:27:10;2.40;99.90
72865;DHT22;61000;48.120;11.548;2023-04-03T01:29:38;2.30;99.90
72865;DHT22;61000;48.120;11.548;2023-04-03T01:32:07;2.30;99.90
72865;DHT22;61000;48.120;11.548;2023-04-03T01:34:35;2.30;99.90
72865;DHT22;61000;48.120;11.548;2023-04-03T01:37:02;2.40;99.90
72865;DHT22;61000;48.120;11.548;2023-04-03T01:39:29;2.30;99.90
72865;DHT22;61000;48.120;11.548;2023-04-03T01:41:56;2.30;99.90
72865;DHT22;61000;48.120;11.548;2023-04-03T01:44:29;2.30;99.90
72865;DHT22;61000;48.120;11.548;2023-04-03T01:46:56;2.30;99.90
72865;DHT22;61000;48.120;11.548;2023-04-03T01:49:27;2.40;99.90
72865;DHT22;61000;48.120;11.548;2023-04-03T01:51:55;2.40;99.90
72865;DHT22;61000;48.120;11.548;2023-04-03T01:54:21;2.40;99.90
72865;DHT22;61000;48.120;11.548;2023-04-03T01:56:48;2.40;99.90
72865;DHT22;61000;48.120;11.548;2023-04-03T01:59:16;2.50;99.90
72865;DHT22;61000;48.120;11.548;2023-04-03T02:01:44;2.50;99.90
72865;DHT22;61000;48.120;11.548;2023-04-03T02:04:12;2.50;99.90
72865;DHT22;61000;48.120;11.548;2023-04-03T02:06:41;2.40;99.90
72865;DHT22;61000;48.120;11.548;2023-04-03T02:09:08;2.40;99.90
72865;DHT22;61000;48.120;11.548;2023-04-03T02:11:35;2.50;99.90
72865;DHT22;61000;48.120;11.548;2023-04-03T02:14:02;2.40;99.90
72865;DHT22;61000;48.120;11.548;2023-04-03T02:16:29;2.60;99.90
72865;DHT22;61000;48.120;11.548;2023-04-03T02:18:57;2.40;99.90
72865;DHT22;61000;48.120;11.548;2023-04-03T02:21:24;2.40;99.90
72865;DHT22;61000;48.120;11.548;2023-04-03T02:23:52;2.40;99.90
72865;DHT22;61000;48.120;11.548;2023-04-03T02:26:19;2.40;99.90
72865;DHT22;61000;48.120;11.548;2023-04-03T02:28:46;2.40;99.90
72865;DHT22;61000;48.120;11.548;2023-04-03T02:31:13;2.40;99.90
72865;DHT22;61000;48.120;11.548;2023-04-03T02:33:42;2.50;99.90
72865;DHT22;61000;48.120;11.548;2023-04-03T02:36:12;2.20;99.90
72865;DHT22;61000;48.120;11.548;2023-04-03T02:38:42;2.50;99.90
72865;DHT22;61000;48.120;11.548;2023-04-03T02:41:11;2.50;99.90
72865;DHT22;61000;48.120;11.548;2023-04-03T02:43:39;2.50;99.90
72865;DHT22;61000;48.120;11.548;2023-04-03T02:46:07;2.50;99.90
72865;DHT22;61000;48.120;11.548;2023-04-03T02:48:34;2.50;99.90
72865;DHT22;61000;48.120;11.548;2023-04-03T02:51:02;3.00;99.90
72865;DHT22;61000;48.120;11.548;2023-04-03T02:53:28;2.50;99.90
72865;DHT22;61000;48.120;11.548;2023-04-03T02:55:56;2.50;99.90
72865;DHT22;61000;48.120;11.548;2023-04-03T02:58:24;2.60;99.90
72865;DHT22;61000;48.120;11.548;2023-04-03T03:00:54;2.70;99.90
72865;DHT22;61000;48.120;11.548;2023-04-03T03:03:21;2.60;99.90
72865;DHT22;61000;48.120;11.548;2023-04-03T03:05:48;2.60;99.90
72865;DHT22;61000;48.120;11.548;2023-04-03T03:08:15;2.60;99.90
72865;DHT22;61000;48.120;11.548;2023-04-03T03:10:45;2.60;99.90
72865;DHT22;61000;48.120;11.548;2023-04-03T03:13:12;2.50;99.90
72865;DHT22;61000;48.120;11.548;2023-04-03T03:15:40;2.60;99.90
72865;DHT22;61000;48.120;11.548;2023-04-03T03:18:07;2.60;99.90
72865;DHT22;61000;48.120;11.548;2023-04-03T03:20:34;2.50;99.90
72865;DHT22;61000;48.120;11.548;2023-04-03T03:23:01;2.50;99.90
72865;DHT22;61000;48.120;11.548;2023-04-03T03:25:28;2.50;99.90
72865;DHT22;61000;48.120;11.548;2023-04-03T03:27:55;2.40;99.90
72865;DHT22;61000;48.120;11.548;2023-04-03T03:30:22;2.50;99.90
72865;DHT22;61000;48.120;11.548;2023-04-03T03:32:50;2.60;99.90
72865;DHT22;61000;48.120;11.548;2023-04-03T03:35:17;2.40;99.90
72865;DHT22;61000;48.120;11.548;2023-04-03T03:37:44;2.50;99.90
72865;DHT22;61000;48.120;11.548;2023-04-03T03:40:12;2.50;99.90
72865;DHT22;61000;48.120;11.548;2023-04-03T03:42:39;2.50;99.90
72865;DHT22;61000;48.120;11.548;2023-04-03T03:45:07;2.60;99.90
72865;DHT22;61000;48.120;11.548;2023-04-03T03:47:34;2.50;99.90
72865;DHT22;61000;48.120;11.548;2023-04-03T03:50:03;2.50;99.90
72865;DHT22;61000;48.120;11.548;2023-04-03T03:52:31;2.50;99.90
72865;DHT22;61000;48.120;11.548;2023-04-03T03:54:58;2.60;99.90
72865;DHT22;61000;48.120;11.548;2023-04-03T03:57:25;2.50;99.90
72865;DHT22;61000;48.120;11.548;2023-04-03T03:59:54;2.70;99.90
72865;DHT22;61000;48.120;11.548;2023-04-03T04:02:22;2.60;99.90
72865;DHT22;61000;48.120;11.548;2023-04-03T04:04:49;2.60;99.90
72865;DHT22;61000;48.120;11.548;2023-04-03T04:07:18;2.90;99.90
72865;DHT22;61000;48.120;11.548;2023-04-03T04:09:45;2.90;99.90
72865;DHT22;61000;48.120;11.548;2023-04-03T04:12:13;2.80;99.90
72865;DHT22;61000;48.120;11.548;2023-04-03T04:14:40;2.60;99.90
72865;DHT22;61000;48.120;11.548;2023-04-03T04:17:08;2.50;99.90
72865;DHT22;61000;48.120;11.548;2023-04-03T04:19:36;2.60;99.90
72865;DHT22;61000;48.120;11.548;2023-04-03T04:22:04;2.60;99.90
72865;DHT22;61000;48.120;11.548;2023-04-03T04:24:33;2.60;99.90
72865;DHT22;61000;48.120;11.548;2023-04-03T04:27:01;2.60;99.90
72865;DHT22;61000;48.120;11.548;2023-04-03T04:29:30;2.70;99.90
72865;DHT22;61000;48.120;11.548;2023-04-03T04:32:01;2.60;99.90
72865;DHT22;61000;48.120;11.548;2023-04-03T04:34:28;2.70;99.90
72865;DHT22;61000;48.120;11.548;2023-04-03T04:36:55;2.60;99.90
72865;DHT22;61000;48.120;11.548;2023-04-03T04:39:22;2.60;99.90
72865;DHT22;61000;48.120;11.548;2023-04-03T04:41:51;2.60;99.90
72865;DHT22;61000;48.120;11.548;2023-04-03T04:44:18;2.60;99.90
72865;DHT22;61000;48.120;11.548;2023-04-03T04:46:45;2.50;99.90
72865;DHT22;61000;48.120;11.548;2023-04-03T04:49:12;2.50;99.90
72865;DHT22;61000;48.120;11.548;2023-04-03T04:51:39;2.50;99.90
72865;DHT22;61000;48.120;11.548;2023-04-03T04:54:06;2.60;99.90
72865;DHT22;61000;48.120;11.548;2023-04-03T04:56:33;2.50;99.90
72865;DHT22;61000;48.120;11.548;2023-04-03T04:59:02;2.50;99.90
72865;DHT22;61000;48.120;11.548;2023-04-03T05:01:29;2.50;99.90
72865;DHT22;61000;48.120;11.548;2023-04-03T05:04:04;2.50;99.90
72865;DHT22;61000;48.120;11.548;2023-04-03T05:06:31;2.50;99.90
72865;DHT22;61000;48.120;11.548;2023-04-03T05:08:59;2.50;99.90
72865;DHT22;61000;48.120;11.548;2023-04-03T05:11:27;2.50;99.90
72865;DHT22;61000;48.120;11.548;2023-04-03T05:13:55;2.60;99.90
72865;DHT22;61000;48.120;11.548;2023-04-03T05:16:24;2.60;99.90
72865;DHT22;61000;48.120;11.548;2023-04-03T05:18:52;2.50;99.90
72865;DHT22;61000;48.120;11.548;2023-04-03T05:21:21;2.60;99.90
72865;DHT22;61000;48.120;11.548;2023-04-03T05:23:49;2.50;99.90
72865;DHT22;61000;48.120;11.548;2023-04-03T05:26:17;2.60;99.90
72865;DHT22;61000;48.120;11.548;2023-04-03T05:28:46;2.50;99.90
72865;DHT22;61000;48.120;11.548;2023-04-03T05:31:14;2.60;99.90
72865;DHT22;61000;48.120;11.548;2023-04-03T05:33:43;2.60;99.90
72865;DHT22;61000;48.120;11.548;2023-04-03T05:36:15;2.70;99.90
72865;DHT22;61000;48.120;11.548;2023-04-03T05:38:45;2.60;99.90
72865;DHT22;61000;48.120;11.548;2023-04-03T05:41:12;2.70;99.90
72865;DHT22;61000;48.120;11.548;2023-04-03T05:43:39;2.60;99.90
72865;DHT22;61000;48.120;11.548;2023-04-03T05:46:12;2.50;99.90
72865;DHT22;61000;48.120;11.548;2023-04-03T05:48:43;2.50;99.90
72865;DHT22;61000;48.120;11.548;2023-04-03T05:51:15;2.50;99.90
72865;DHT22;61000;48.120;11.548;2023-04-03T05:53:44;2.60;99.90
72865;DHT22;61000;48.120;11.548;2023-04-03T05:56:11;2.60;99.90
72865;DHT22;61000;48.120;11.548;2023-04-03T05:58:39;2.90;99.90
72865;DHT22;61000;48.120;11.548;2023-04-03T06:01:06;2.70;99.90
72865;DHT22;61000;48.120;11.548;2023-04-03T06:03:34;2.80;99.90
72865;DHT22;61000;48.120;11.548;2023-04-03T06:06:04;2.70;99.90
72865;DHT22;61000;48.120;11.548;2023-04-03T06:08:31;2.70;99.90
72865;DHT22;61000;48.120;11.548;2023-04-03T06:10:58;2.70;99.90
72865;DHT22;61000;48.120;11.548;2023-04-03T06:13:26;2.70;99.90
72865;DHT22;61000;48.120;11.548;2023-04-03T06:15:54;2.80;99.90
72865;DHT22;61000;48.120;11.548;2023-04-03T06:18:21;2.80;99.90
72865;DHT22;61000;48.120;11.548;2023-04-03T06:20:48;2.80;99.90
72865;DHT22;61000;48.120;11.548;2023-04-03T06:23:17;3.00;99.90
72865;DHT22;61000;48.120;11.548;2023-04-03T06:25:44;3.00;99.90
72865;DHT22;61000;48.120;11.548;2023-04-03T06:28:11;3.10;99.90
72865;DHT22;61000;48.120;11.548;2023-04-03T06:30:38;3.00;99.90
72865;DHT22;61000;48.120;11.548;2023-04-03T06:33:05;3.10;99.90
72865;DHT22;61000;48.120;11.548;2023-04-03T06:35:32;3.00;99.90
72865;DHT22;61000;48.120;11.548;2023-04-03T06:38:00;3.00;99.90
72865;DHT22;61000;48.120;11.548;2023-04-03T06:40:31;3.00;99.90
72865;DHT22;61000;48.120;11.548;2023-04-03T06:42:57;3.00;99.90
72865;DHT22;61000;48.120;11.548;2023-04-03T06:45:24;3.20;99.90
72865;DHT22;61000;48.120;11.548;2023-04-03T06:47:51;3.10;99.90
72865;DHT22;61000;48.120;11.548;2023-04-03T06:50:19;3.10;99.90
72865;DHT22;61000;48.120;11.548;2023-04-03T06:52:45;3.20;99.90
72865;DHT22;61000;48.120;11.548;2023-04-03T06:55:12;3.30;99.90
72865;DHT22;61000;48.120;11.548;2023-04-03T06:57:41;3.40;99.90
72865;DHT22;61000;48.120;11.548;2023-04-03T07:00:16;3.50;99.90
72865;DHT22;61000;48.120;11.548;2023-04-03T07:02:44;3.70;99.90
72865;DHT22;61000;48.120;11.548;2023-04-03T07:05:11;3.50;99.90
72865;DHT22;61000;48.120;11.548;2023-04-03T07:07:37;3.60;99.90
72865;DHT22;61000;48.120;11.548;2023-04-03T07:10:06;3.60;99.90
72865;DHT22;61000;48.120;11.548;2023-04-03T07:12:33;3.60;99.90
72865;DHT22;61000;48.120;11.548;2023-04-03T07:15:02;3.80;99.90
72865;DHT22;61000;48.120;11.548;2023-04-03T07:17:29;3.70;99.90
72865;DHT22;61000;48.120;11.548;2023-04-03T07:19:56;3.80;99.90
72865;DHT22;61000;48.120;11.548;2023-04-03T07:22:30;3.90;99.90
72865;DHT22;61000;48.120;11.548;2023-04-03T07:24:57;3.90;99.90
72865;DHT22;61000;48.120;11.548;2023-04-03T07:27:25;4.10;99.90
72865;DHT22;61000;48.120;11.548;2023-04-03T07:29:52;3.90;99.90
72865;DHT22;61000;48.120;11.548;2023-04-03T07:32:22;3.80;99.90
72865;DHT22;61000;48.120;11.548;2023-04-03T07:34:50;3.80;99.90
72865;DHT22;61000;48.120;11.548;2023-04-03T07:37:18;3.70;99.90
72865;DHT22;61000;48.120;11.548;2023-04-03T07:39:45;3.60;99.90
72865;DHT22;61000;48.120;11.548;2023-04-03T07:42:12;3.60;99.90
72865;DHT22;61000;48.120;11.548;2023-04-03T07:44:39;3.70;99.90
72865;DHT22;61000;48.120;11.548;2023-04-03T07:47:06;3.60;99.90
72865;DHT22;61000;48.120;11.548;2023-04-03T07:49:34;3.90;99.90
72865;DHT22;61000;48.120;11.548;2023-04-03T07:52:05;3.80;99.90
72865;DHT22;61000;48.120;11.548;2023-04-03T07:54:32;3.70;99.90
72865;DHT22;61000;48.120;11.548;2023-04-03T07:57:00;4.00;99.90
72865;DHT22;61000;48.120;11.548;2023-04-03T07:59:27;3.80;99.90
72865;DHT22;61000;48.120;11.548;2023-04-03T08:01:54;3.60;99.90
72865;DHT22;61000;48.120;11.548;2023-04-03T08:04:21;3.80;99.90
72865;DHT22;61000;48.120;11.548;2023-04-03T08:06:49;3.80;99.90
72865;DHT22;61000;48.120;11.548;2023-04-03T08:09:16;3.90;99.90
72865;DHT22;61000;48.120;11.548;2023-04-03T08:11:44;3.90;99.90
72865;DHT22;61000;48.120;11.548;2023-04-03T08:14:11;3.90;99.90
72865;DHT22;61000;48.120;11.548;2023-04-03T08:16:42;3.90;99.90
72865;DHT22;61000;48.120;11.548;2023-04-03T08:19:09;3.90;99.90
72865;DHT22;61000;48.120;11.548;2023-04-03T08:21:40;3.70;99.90
72865;DHT22;61000;48.120;11.548;2023-04-03T08:24:08;3.90;99.90
72865;DHT22;61000;48.120;11.548;2023-04-03T08:26:36;4.00;99.90
72865;DHT22;61000;48.120;11.548;2023-04-03T08:29:03;4.30;99.90
72865;DHT22;61000;48.120;11.548;2023-04-03T08:31:30;4.10;99.90
72865;DHT22;61000;48.120;11.548;2023-04-03T08:33:57;4.00;99.90
72865;DHT22;61000;48.120;11.548;2023-04-03T08:36:26;3.90;99.90
72865;DHT22;61000;48.120;11.548;2023-04-03T08:38:54;3.80;99.90
72865;DHT22;61000;48.120;11.548;2023-04-03T08:41:29;3.70;99.90
72865;DHT22;61000;48.120;11.548;2023-04-03T08:44:02;3.60;99.90
72865;DHT22;61000;48.120;11.548;2023-04-03T08:46:40;3.70;99.90
72865;DHT22;61000;48.120;11.548;2023-04-03T08:49:16;3.80;99.90
72865;DHT22;61000;48.120;11.548;2023-04-03T08:51:46;3.90;99.90
72865;DHT22;61000;48.120;11.548;2023-04-03T08:54:21;3.80;99.90
72865;DHT22;61000;48.120;11.548;2023-04-03T08:56:51;3.90;99.90
72865;DHT22;61000;48.120;11.548;2023-04-03T08:59:26;3.90;99.90
72865;DHT22;61000;48.120;11.548;2023-04-03T09:01:54;4.00;99.90
72865;DHT22;61000;48.120;11.548;2023-04-03T09:04:22;4.10;99.90
72865;DHT22;61000;48.120;11.548;2023-04-03T09:06:55;4.20;99.90
72865;DHT22;61000;48.120;11.548;2023-04-03T09:09:30;4.40;99.90
72865;DHT22;61000;48.120;11.548;2023-04-03T09:12:04;4.10;99.90
72865;DHT22;61000;48.120;11.548;2023-04-03T09:14:39;4.00;99.90
72865;DHT22;61000;48.120;11.548;2023-04-03T09:17:15;4.00;99.90
72865;DHT22;61000;48.120;11.548;2023-04-03T09:19:50;3.80;99.90
72865;DHT22;61000;48.120;11.548;2023-04-03T09:22:24;3.90;99.90
72865;DHT22;61000;48.120;11.548;2023-04-03T09:24:57;3.90;99.90
72865;DHT22;61000;48.120;11.548;2023-04-03T09:27:27;4.10;99.90
72865;DHT22;61000;48.120;11.548;2023-04-03T09:29:55;4.30;99.90
72865;DHT22;61000;48.120;11.548;2023-04-03T09:32:27;4.30;99.90
72865;DHT22;61000;48.120;11.548;2023-04-03T09:34:55;4.60;99.90
72865;DHT22;61000;48.120;11.548;2023-04-03T09:37:38;4.10;99.90
72865;DHT22;61000;48.120;11.548;2023-04-03T09:40:12;4.30;99.90
72865;DHT22;61000;48.120;11.548;2023-04-03T09:42:57;4.30;99.90
72865;DHT22;61000;48.120;11.548;2023-04-03T09:45:26;4.50;99.90
72865;DHT22;61000;48.120;11.548;2023-04-03T09:48:05;4.60;99.90
72865;DHT22;61000;48.120;11.548;2023-04-03T09:50:34;4.60;99.90
72865;DHT22;61000;48.120;11.548;2023-04-03T09:53:06;4.70;99.90
72865;DHT22;61000;48.120;11.548;2023-04-03T09:55:42;5.00;99.90
72865;DHT22;61000;48.120;11.548;2023-04-03T09:58:25;4.90;99.90
72865;DHT22;61000;48.120;11.548;2023-04-03T10:00:57;4.90;99.90
72865;DHT22;61000;48.120;11.548;2023-04-03T10:03:27;4.70;99.90
72865;DHT22;61000;48.120;11.548;2023-04-03T10:05:55;4.80;99.90
72865;DHT22;61000;48.120;11.548;2023-04-03T10:08:26;4.90;99.90
72865;DHT22;61000;48.120;11.548;2023-04-03T10:11:15;5.00;99.90
72865;DHT22;61000;48.120;11.548;2023-04-03T10:13:55;5.10;99.90
72865;DHT22;61000;48.120;11.548;2023-04-03T10:16:27;5.10;99.90
72865;DHT22;61000;48.120;11.548;2023-04-03T10:19:14;5.10;99.90
72865;DHT22;61000;48.120;11.548;2023-04-03T10:21:47;5.10;99.90
72865;DHT22;61000;48.120;11.548;2023-04-03T10:24:20;5.10;99.90
72865;DHT22;61000;48.120;11.548;2023-04-03T10:26:52;4.20;99.90
72865;DHT22;61000;48.120;11.548;2023-04-03T10:29:34;4.60;99.90
72865;DHT22;61000;48.120;11.548;2023-04-03T10:32:11;4.50;99.90
72865;DHT22;61000;48.120;11.548;2023-04-03T10:34:43;4.40;99.90
72865;DHT22;61000;48.120;11.548;2023-04-03T10:37:17;4.40;99.90
72865;DHT22;61000;48.120;11.548;2023-04-03T10:39:52;4.50;99.90
72865;DHT22;61000;48.120;11.548;2023-04-03T10:42:27;4.40;99.90
72865;DHT22;61000;48.120;11.548;2023-04-03T10:47:59;4.20;99.90
72865;DHT22;61000;48.120;11.548;2023-04-03T10:50:38;4.20;99.90
72865;DHT22;61000;48.120;11.548;2023-04-03T10:53:12;4.10;99.90
72865;DHT22;61000;48.120;11.548;2023-04-03T10:55:43;4.00;99.90
72865;DHT22;61000;48.120;11.548;2023-04-03T10:58:18;3.90;99.90
72865;DHT22;61000;48.120;11.548;2023-04-03T11:00:50;3.80;99.90
72865;DHT22;61000;48.120;11.548;2023-04-03T11:03:29;3.80;99.90
72865;DHT22;61000;48.120;11.548;2023-04-03T11:06:00;3.70;99.90
72865;DHT22;61000;48.120;11.548;2023-04-03T11:08:32;3.60;99.90
72865;DHT22;61000;48.120;11.548;2023-04-03T11:11:03;3.40;99.90
72865;DHT22;61000;48.120;11.548;2023-04-03T11:13:34;3.60;99.90
72865;DHT22;61000;48.120;11.548;2023-04-03T11:16:05;3.70;99.90
72865;DHT22;61000;48.120;11.548;2023-04-03T11:18:37;3.80;99.90
72865;DHT22;61000;48.120;11.548;2023-04-03T11:21:09;3.80;99.90
72865;DHT22;61000;48.120;11.548;2023-04-03T11:23:40;3.90;99.90
72865;DHT22;61000;48.120;11.548;2023-04-03T11:26:10;3.90;99.90
72865;DHT22;61000;48.120;11.548;2023-04-03T11:28:37;3.90;99.90
72865;DHT22;61000;48.120;11.548;2023-04-03T11:31:18;3.80;99.90
72865;DHT22;61000;48.120;11.548;2023-04-03T11:33:53;3.70;99.90
72865;DHT22;61000;48.120;11.548;2023-04-03T11:36:25;4.00;99.90
72865;DHT22;61000;48.120;11.548;2023-04-03T11:38:54;4.20;99.90
72865;DHT22;61000;48.120;11.548;2023-04-03T11:41:27;4.30;99.90
72865;DHT22;61000;48.120;11.548;2023-04-03T11:43:58;4.20;99.90
72865;DHT22;61000;48.120;11.548;2023-04-03T11:46:51;4.30;99.90
72865;DHT22;61000;48.120;11.548;2023-04-03T11:52:55;4.60;99.90
72865;DHT22;61000;48.120;11.548;2023-04-03T11:55:42;4.70;99.90
72865;DHT22;61000;48.120;11.548;2023-04-03T11:58:15;5.00;99.90
72865;DHT22;61000;48.120;11.548;2023-04-03T12:00:47;5.20;99.90
72865;DHT22;61000;48.120;11.548;2023-04-03T12:09:29;5.30;99.90
72865;DHT22;61000;48.120;11.548;2023-04-03T12:12:21;5.30;99.90
72865;DHT22;61000;48.120;11.548;2023-04-03T12:14:48;5.30;99.90
72865;DHT22;61000;48.120;11.548;2023-04-03T12:17:21;5.30;99.90
72865;DHT22;61000;48.120;11.548;2023-04-03T12:19:50;5.20;99.90
72865;DHT22;61000;48.120;11.548;2023-04-03T12:22:18;5.50;99.90
72865;DHT22;61000;48.120;11.548;2023-04-03T12:24:49;5.60;99.90
72865;DHT22;61000;48.120;11.548;2023-04-03T12:27:24;5.60;99.90
72865;DHT22;61000;48.120;11.548;2023-04-03T12:30:03;5.50;99.30
72865;DHT22;61000;48.120;11.548;2023-04-03T12:32:56;5.60;99.00
72865;DHT22;61000;48.120;11.548;2023-04-03T12:35:29;5.60;99.20
72865;DHT22;61000;48.120;11.548;2023-04-03T12:38:22;5.60;98.90
72865;DHT22;61000;48.120;11.548;2023-04-03T12:41:01;5.50;98.60
72865;DHT22;61000;48.120;11.548;2023-04-03T12:43:43;5.70;98.80
72865;DHT22;61000;48.120;11.548;2023-04-03T12:46:15;5.70;98.60
72865;DHT22;61000;48.120;11.548;2023-04-03T12:48:49;5.80;98.50
72865;DHT22;61000;48.120;11.548;2023-04-03T12:51:19;5.70;98.10
72865;DHT22;61000;48.120;11.548;2023-04-03T12:53:48;5.70;97.40
72865;DHT22;61000;48.120;11.548;2023-04-03T12:56:22;5.80;97.20
72865;DHT22;61000;48.120;11.548;2023-04-03T12:58:51;5.90;97.30
72865;DHT22;61000;48.120;11.548;2023-04-03T13:01:21;5.90;97.90
72865;DHT22;61000;48.120;11.548;2023-04-03T13:03:51;6.00;98.80
72865;DHT22;61000;48.120;11.548;2023-04-03T13:06:21;5.90;98.30
72865;DHT22;61000;48.120;11.548;2023-04-03T13:08:51;6.10;98.30
72865;DHT22;61000;48.120;11.548;2023-04-03T13:11:20;6.20;98.40
72865;DHT22;61000;48.120;11.548;2023-04-03T13:13:55;6.00;96.70
72865;DHT22;61000;48.120;11.548;2023-04-03T13:16:22;5.90;96.60
72865;DHT22;61000;48.120;11.548;2023-04-03T13:18:51;6.00;96.60
72865;DHT22;61000;48.120;11.548;2023-04-03T13:21:20;6.00;97.10
72865;DHT22;61000;48.120;11.548;2023-04-03T13:23:50;6.10;96.90
72865;DHT22;61000;48.120;11.548;2023-04-03T13:26:18;6.00;96.40
72865;DHT22;61000;48.120;11.548;2023-04-03T13:28:48;5.90;95.50
72865;DHT22;61000;48.120;11.548;2023-04-03T13:31:22;6.20;95.50
72865;DHT22;61000;48.120;11.548;2023-04-03T13:33:57;6.30;95.90
72865;DHT22;61000;48.120;11.548;2023-04-03T13:36:26;6.50;99.90
72865;DHT22;61000;48.120;11.548;2023-04-03T14:03:55;5.50;99.90
72865;DHT22;61000;48.120;11.548;2023-04-03T14:06:24;5.60;99.90
72865;DHT22;61000;48.120;11.548;2023-04-03T14:08:51;5.60;99.90
72865;DHT22;61000;48.120;11.548;2023-04-03T14:11:20;5.80;99.90
72865;DHT22;61000;48.120;11.548;2023-04-03T14:13:48;5.80;99.90
72865;DHT22;61000;48.120;11.548;2023-04-03T14:16:19;5.80;99.90
72865;DHT22;61000;48.120;11.548;2023-04-03T14:18:48;5.80;99.90
72865;DHT22;61000;48.120;11.548;2023-04-03T14:21:17;5.70;99.90
72865;DHT22;61000;48.120;11.548;2023-04-03T14:23:45;5.70;99.90
72865;DHT22;61000;48.120;11.548;2023-04-03T14:26:13;5.60;99.90
72865;DHT22;61000;48.120;11.548;2023-04-03T14:28:42;5.60;99.90
72865;DHT22;61000;48.120;11.548;2023-04-03T14:31:09;5.70;99.90
72865;DHT22;61000;48.120;11.548;2023-04-03T14:33:39;5.90;99.90
72865;DHT22;61000;48.120;11.548;2023-04-03T15:38:00;5.30;99.70
72865;DHT22;61000;48.120;11.548;2023-04-03T15:40:27;5.50;99.90
72865;DHT22;61000;48.120;11.548;2023-04-03T15:42:56;5.50;99.90
72865;DHT22;61000;48.120;11.548;2023-04-03T15:45:23;5.60;99.90
72865;DHT22;61000;48.120;11.548;2023-04-03T15:47:50;5.30;99.70
72865;DHT22;61000;48.120;11.548;2023-04-03T15:50:18;5.60;99.90
72865;DHT22;61000;48.120;11.548;2023-04-03T15:52:45;5.60;99.50
72865;DHT22;61000;48.120;11.548;2023-04-03T15:55:12;5.60;99.50
72865;DHT22;61000;48.120;11.548;2023-04-03T15:57:39;5.60;99.30
72865;DHT22;61000;48.120;11.548;2023-04-03T16:00:08;5.50;98.70
72865;DHT22;61000;48.120;11.548;2023-04-03T16:02:35;5.60;98.60
72865;DHT22;61000;48.120;11.548;2023-04-03T16:05:03;5.70;98.00
72865;DHT22;61000;48.120;11.548;2023-04-03T16:07:30;5.60;97.90
72865;DHT22;61000;48.120;11.548;2023-04-03T16:09:57;5.70;97.40
72865;DHT22;61000;48.120;11.548;2023-04-03T16:12:24;5.80;97.60
72865;DHT22;61000;48.120;11.548;2023-04-03T16:14:51;5.60;97.80
72865;DHT22;61000;48.120;11.548;2023-04-03T16:17:19;5.50;98.00
72865;DHT22;61000;48.120;11.548;2023-04-03T16:19:46;5.60;98.10
72865;DHT22;61000;48.120;11.548;2023-04-03T16:22:13;5.50;98.20
72865;DHT22;61000;48.120;11.548;2023-04-03T16:24:40;5.50;98.00
72865;DHT22;61000;48.120;11.548;2023-04-03T16:27:07;5.30;97.80
72865;DHT22;61000;48.120;11.548;2023-04-03T16:29:34;5.30;97.90
72865;DHT22;61000;48.120;11.548;2023-04-03T16:32:01;5.30;97.30
72865;DHT22;61000;48.120;11.548;2023-04-03T16:34:30;5.20;97.30
72865;DHT22;61000;48.120;11.548;2023-04-03T16:36:58;5.20;97.10
72865;DHT22;61000;48.120;11.548;2023-04-03T16:39:26;5.10;96.90
72865;DHT22;61000;48.120;11.548;2023-04-03T16:41:52;5.10;96.90
72865;DHT22;61000;48.120;11.548;2023-04-03T16:44:19;5.00;96.80
72865;DHT22;61000;48.120;11.548;2023-04-03T16:46:46;5.00;96.70
72865;DHT22;61000;48.120;11.548;2023-04-03T16:49:13;5.10;96.70
72865;DHT22;61000;48.120;11.548;2023-04-03T16:51:42;5.10;96.70
72865;DHT22;61000;48.120;11.548;2023-04-03T16:54:09;5.10;96.50
72865;DHT22;61000;48.120;11.548;2023-04-03T16:56:38;5.10;95.90
72865;DHT22;61000;48.120;11.548;2023-04-03T16:59:05;5.10;96.10
72865;DHT22;61000;48.120;11.548;2023-04-03T17:01:32;5.00;96.10
72865;DHT22;61000;48.120;11.548;2023-04-03T17:03:59;4.90;95.60
72865;DHT22;61000;48.120;11.548;2023-04-03T17:06:26;5.00;95.80
72865;DHT22;61000;48.120;11.548;2023-04-03T17:08:55;5.00;95.90
72865;DHT22;61000;48.120;11.548;2023-04-03T17:11:27;5.00;96.20
72865;DHT22;61000;48.120;11.548;2023-04-03T17:13:55;4.90;96.70
72865;DHT22;61000;48.120;11.548;2023-04-03T17:16:22;4.80;97.10
72865;DHT22;61000;48.120;11.548;2023-04-03T17:18:49;4.80;97.10
72865;DHT22;61000;48.120;11.548;2023-04-03T17:21:17;4.70;97.20
72865;DHT22;61000;48.120;11.548;2023-04-03T17:23:46;4.80;97.20